Time;durP1;ratioP1;P1;durP2;ratioP2;P2;SDS_P1;SDS_P2;PMS_P1;PMS_P2;Temp;Humidity;BMP_temperature;BMP_pressure;BME280_temperature;BME280_humidity;BME280_pressure;Samples;Min_cycle;Max_cycle;Signal;HPM_P1;HPM_P2
2022/04/26 03:36:16;;;;;;;;;;;7.50;99.90;;;;;;5073335;28;19920;-80
2022/04/26 03:38:43;;;;;;;;;;;7.60;99.90;;;;;;5073657;28;19904;-81
2022/04/26 03:41:09;;;;;;;;;;;7.80;99.90;;;;;;5055471;28;20280;-80
2022/04/26 03:43:34;;;;;;;;;;;7.90;99.90;;;;;;5073531;28;19905;-81
2022/04/26 03:46:00;;;;;;;;;;;7.70;99.90;;;;;;5073508;28;19908;-80
2022/04/26 03:48:25;;;;;;;;;;;7.60;99.90;;;;;;5073459;28;20230;-80
2022/04/26 03:50:51;;;;;;;;;;;7.70;99.90;;;;;;5073433;28;19911;-81
2022/04/26 03:53:17;;;;;;;;;;;8.00;99.90;;;;;;5073624;28;19912;-81
2022/04/26 03:55:42;;;;;;;;;;;7.90;99.90;;;;;;5073543;28;20387;-80
2022/04/26 03:58:08;;;;;;;;;;;7.80;99.90;;;;;;5073591;28;19912;-81
2022/04/26 04:00:33;;;;;;;;;;;7.60;99.90;;;;;;5076822;28;19912;-82
2022/04/26 04:03:00;;;;;;;;;;;7.50;99.90;;;;;;5077331;28;19912;-82
2022/04/26 04:05:26;;;;;;;;;;;7.50;99.90;;;;;;5059213;28;19908;-80
2022/04/26 04:07:51;;;;;;;;;;;7.50;99.90;;;;;;5077363;28;19904;-81
2022/04/26 04:10:17;;;;;;;;;;;7.50;99.90;;;;;;5077127;28;19991;-81
2022/04/26 04:12:42;;;;;;;;;;;7.60;99.90;;;;;;5077337;28;20276;-80
2022/04/26 04:15:09;;;;;;;;;;;7.90;99.90;;;;;;5077046;28;19908;-80
2022/04/26 04:17:34;;;;;;;;;;;7.70;99.90;;;;;;5059095;28;20066;-81
2022/04/26 04:20:00;;;;;;;;;;;7.60;99.90;;;;;;5077337;28;19939;-81
2022/04/26 04:22:26;;;;;;;;;;;7.40;99.90;;;;;;5077184;28;19947;-80
2022/04/26 04:24:52;;;;;;;;;;;7.30;99.90;;;;;;5076850;28;19947;-81
2022/04/26 04:27:17;;;;;;;;;;;7.50;99.90;;;;;;5058926;28;19957;-80
2022/04/26 04:29:44;;;;;;;;;;;7.70;99.90;;;;;;5077269;28;19965;-81
2022/04/26 04:32:10;;;;;;;;;;;7.70;99.90;;;;;;5077037;28;19904;-80
2022/04/26 04:34:35;;;;;;;;;;;7.40;99.90;;;;;;5076659;28;20365;-80
2022/04/26 04:37:01;;;;;;;;;;;7.30;99.90;;;;;;5058536;28;19987;-81
2022/04/26 04:39:27;;;;;;;;;;;7.30;99.90;;;;;;5076606;28;19927;-81
2022/04/26 04:41:53;;;;;;;;;;;7.30;99.90;;;;;;5076575;28;19991;-82
2022/04/26 04:44:19;;;;;;;;;;;7.10;99.90;;;;;;5076474;28;20369;-81
2022/04/26 04:46:45;;;;;;;;;;;7.00;99.90;;;;;;5076494;28;19911;-81
2022/04/26 04:49:11;;;;;;;;;;;7.10;99.90;;;;;;5076574;28;19910;-80
2022/04/26 04:51:36;;;;;;;;;;;7.40;99.90;;;;;;5076482;28;19905;-81
2022/04/26 04:54:02;;;;;;;;;;;7.50;99.90;;;;;;5076374;28;19936;-82
2022/04/26 04:56:28;;;;;;;;;;;7.50;99.90;;;;;;5076331;28;20271;-81
2022/04/26 04:58:54;;;;;;;;;;;7.40;99.90;;;;;;5076839;28;19904;-82
2022/04/26 05:01:20;;;;;;;;;;;7.30;99.90;;;;;;5058209;28;19909;-81
2022/04/26 05:03:46;;;;;;;;;;;7.40;99.90;;;;;;5076233;28;19905;-81
2022/04/26 05:06:14;;;;;;;;;;;7.40;99.90;;;;;;5076073;28;20382;-81
2022/04/26 05:08:39;;;;;;;;;;;7.20;99.90;;;;;;5076200;28;20322;-81
2022/04/26 05:11:05;;;;;;;;;;;7.00;99.90;;;;;;5075590;28;19908;-81
2022/04/26 05:13:31;;;;;;;;;;;7.00;99.90;;;;;;5076066;28;20272;-81
2022/04/26 05:15:56;;;;;;;;;;;6.90;99.90;;;;;;5075989;28;19943;-81
2022/04/26 05:18:22;;;;;;;;;;;7.00;99.90;;;;;;5076322;28;19939;-80
2022/04/26 05:20:47;;;;;;;;;;;7.10;99.90;;;;;;5075995;28;19904;-81
2022/04/26 05:25:57;;;;;;;;;;;7.50;99.90;;;;;;5075687;28;20316;-80
2022/04/26 05:28:23;;;;;;;;;;;7.20;99.90;;;;;;5075756;28;19906;-81
2022/04/26 05:30:50;;;;;;;;;;;6.80;99.90;;;;;;5075850;28;19909;-80
2022/04/26 05:33:16;;;;;;;;;;;6.70;99.90;;;;;;5075758;28;20360;-80
2022/04/26 05:35:41;;;;;;;;;;;6.90;99.90;;;;;;5075415;28;19912;-81
2022/04/26 05:38:07;;;;;;;;;;;6.60;99.90;;;;;;5075376;28;19995;-81
2022/04/26 05:40:33;;;;;;;;;;;6.40;99.90;;;;;;5075845;28;20345;-81
2022/04/26 05:42:58;;;;;;;;;;;6.60;99.90;;;;;;5075429;28;19909;-81
2022/04/26 05:45:27;;;;;;;;;;;7.10;99.90;;;;;;5075405;28;19915;-82
2022/04/26 05:47:54;;;;;;;;;;;7.30;99.90;;;;;;5075374;28;19911;-80
2022/04/26 05:50:19;;;;;;;;;;;7.70;99.90;;;;;;5075481;28;19908;-81
2022/04/26 05:52:45;;;;;;;;;;;7.90;99.90;;;;;;5075263;28;19912;-82
2022/04/26 05:55:11;;;;;;;;;;;8.10;99.90;;;;;;5075122;28;19939;-81
2022/04/26 05:57:37;;;;;;;;;;;8.30;99.90;;;;;;5075141;28;19912;-81
2022/04/26 06:00:04;;;;;;;;;;;8.10;99.90;;;;;;5075048;28;19911;-81
2022/04/26 06:02:29;;;;;;;;;;;8.40;99.90;;;;;;5075036;28;20034;-79
2022/04/26 06:04:55;;;;;;;;;;;8.60;99.90;;;;;;5056990;28;19943;-79
2022/04/26 06:07:20;;;;;;;;;;;8.70;99.90;;;;;;5075260;28;20001;-80
2022/04/26 06:09:46;;;;;;;;;;;8.80;99.90;;;;;;5074995;28;19911;-79
2022/04/26 06:12:12;;;;;;;;;;;8.90;99.90;;;;;;5074776;28;19904;-80
2022/04/26 06:14:38;;;;;;;;;;;8.90;99.90;;;;;;5075249;28;20319;-80
2022/04/26 06:17:03;;;;;;;;;;;8.90;99.90;;;;;;5074773;28;20364;-81
2022/04/26 06:19:29;;;;;;;;;;;9.00;99.90;;;;;;5074730;28;19912;-79
2022/04/26 06:21:55;;;;;;;;;;;9.10;99.90;;;;;;5074032;28;19911;-81
2022/04/26 06:24:20;;;;;;;;;;;9.20;99.90;;;;;;5074567;28;19998;-80
2022/04/26 06:26:46;;;;;;;;;;;9.20;99.90;;;;;;5074640;28;19973;-80
2022/04/26 06:29:11;;;;;;;;;;;8.90;99.90;;;;;;5074541;28;19908;-81
2022/04/26 06:31:37;;;;;;;;;;;8.70;99.90;;;;;;5074486;28;20360;-81
2022/04/26 06:34:03;;;;;;;;;;;9.00;99.90;;;;;;5056492;28;19948;-82
2022/04/26 06:36:29;;;;;;;;;;;9.20;99.90;;;;;;5074167;28;19927;-82
2022/04/26 06:38:54;;;;;;;;;;;9.60;99.90;;;;;;5074310;28;20399;-81
2022/04/26 06:41:21;;;;;;;;;;;9.80;99.90;;;;;;5056324;28;20000;-80
2022/04/26 06:43:46;;;;;;;;;;;9.90;99.90;;;;;;5074158;28;19970;-82
2022/04/26 06:46:12;;;;;;;;;;;10.40;99.90;;;;;;5074156;28;20372;-80
2022/04/26 06:48:37;;;;;;;;;;;11.30;99.90;;;;;;5074265;28;19912;-81
2022/04/26 06:51:03;;;;;;;;;;;12.30;99.90;;;;;;5074143;28;19904;-81
2022/04/26 06:53:29;;;;;;;;;;;13.20;99.90;;;;;;5074261;28;20296;-82
2022/04/26 06:55:55;;;;;;;;;;;13.80;99.90;;;;;;5073980;28;19908;-81
2022/04/26 06:58:21;;;;;;;;;;;14.10;99.90;;;;;;5074071;28;19904;-79
2022/04/26 07:00:47;;;;;;;;;;;14.40;99.90;;;;;;5074003;28;19911;-79
2022/04/26 07:03:13;;;;;;;;;;;14.60;99.90;;;;;;5073946;28;19915;-81
2022/04/26 07:05:41;;;;;;;;;;;14.40;99.90;;;;;;5073853;28;19916;-79
2022/04/26 07:08:07;;;;;;;;;;;14.50;99.90;;;;;;5074072;28;20414;-78
2022/04/26 07:10:32;;;;;;;;;;;14.50;99.90;;;;;;5073740;28;19908;-80
2022/04/26 07:12:58;;;;;;;;;;;14.50;99.90;;;;;;5073796;28;19910;-80
2022/04/26 07:15:24;;;;;;;;;;;14.60;99.90;;;;;;5055836;28;19904;-80
2022/04/26 07:17:50;;;;;;;;;;;14.40;99.90;;;;;;5073812;28;19904;-82
2022/04/26 07:20:15;;;;;;;;;;;14.70;99.90;;;;;;5073868;28;19912;-81
2022/04/26 07:22:41;;;;;;;;;;;14.90;99.90;;;;;;5073678;28;20415;-79
2022/04/26 07:25:08;;;;;;;;;;;15.20;99.90;;;;;;5073664;28;19916;-80
2022/04/26 07:27:34;;;;;;;;;;;15.50;99.90;;;;;;5073671;28;19999;-80
2022/04/26 07:29:59;;;;;;;;;;;15.50;99.90;;;;;;5073928;28;19916;-80
2022/04/26 07:35:10;;;;;;;;;;;15.50;99.90;;;;;;5073611;28;20387;-82
2022/04/26 07:37:36;;;;;;;;;;;15.70;99.90;;;;;;5073383;28;20003;-79
2022/04/26 07:40:03;;;;;;;;;;;16.10;99.90;;;;;;5073535;28;19911;-80
2022/04/26 07:42:29;;;;;;;;;;;16.00;99.90;;;;;;5073535;28;20292;-81
2022/04/26 07:44:54;;;;;;;;;;;16.10;99.90;;;;;;5073480;28;19908;-79
2022/04/26 07:47:24;;;;;;;;;;;16.40;99.90;;;;;;5055486;28;20383;-80
2022/04/26 07:49:50;;;;;;;;;;;16.60;99.90;;;;;;5073471;28;20009;-79
2022/04/26 07:52:16;;;;;;;;;;;17.30;99.80;;;;;;5073479;28;19905;-80
2022/04/26 07:54:42;;;;;;;;;;;17.20;96.90;;;;;;5073449;28;20349;-82
2022/04/26 07:57:08;;;;;;;;;;;17.10;97.60;;;;;;5055368;28;19911;-80
2022/04/26 07:59:33;;;;;;;;;;;17.30;96.40;;;;;;5073782;28;19911;-82
2022/04/26 08:01:59;;;;;;;;;;;17.40;96.40;;;;;;5073653;28;19908;-79
2022/04/26 08:04:24;;;;;;;;;;;17.70;96.00;;;;;;5073463;28;19944;-80
2022/04/26 08:06:50;;;;;;;;;;;17.90;94.80;;;;;;5055278;28;19904;-80
2022/04/26 08:09:16;;;;;;;;;;;17.80;93.60;;;;;;5073364;28;19904;-82
2022/04/26 08:11:41;;;;;;;;;;;18.20;92.70;;;;;;5055215;28;20321;-80
2022/04/26 08:14:07;;;;;;;;;;;18.50;90.60;;;;;;5073516;28;19905;-80
2022/04/26 08:16:32;;;;;;;;;;;18.80;86.30;;;;;;5055174;28;19948;-81
2022/04/26 08:18:58;;;;;;;;;;;18.90;86.80;;;;;;5073183;28;20409;-79
2022/04/26 08:21:24;;;;;;;;;;;19.60;81.50;;;;;;5055128;28;20365;-81
2022/04/26 08:29:18;;;;;;;;;;;20.20;75.20;;;;;;5073049;28;19911;-81
2022/04/26 08:31:44;;;;;;;;;;;20.50;74.20;;;;;;5055016;28;19904;-79
2022/04/26 08:34:09;;;;;;;;;;;21.20;71.20;;;;;;5055022;28;19905;-80
2022/04/26 08:36:35;;;;;;;;;;;21.60;69.70;;;;;;5072798;28;20037;-81
2022/04/26 08:39:01;;;;;;;;;;;22.20;67.90;;;;;;5072904;28;19904;-79
2022/04/26 08:41:26;;;;;;;;;;;22.80;64.70;;;;;;5072861;28;20003;-79
2022/04/26 08:43:52;;;;;;;;;;;23.30;62.70;;;;;;5073425;28;19905;-78
2022/04/26 08:46:17;;;;;;;;;;;22.40;62.90;;;;;;5075732;28;19915;-79
2022/04/26 08:51:30;;;;;;;;;;;24.30;59.00;;;;;;5076279;28;20050;-82
2022/04/26 08:53:56;;;;;;;;;;;24.90;56.00;;;;;;5058461;28;19954;-80
2022/04/26 08:56:22;;;;;;;;;;;24.70;56.60;;;;;;5076801;28;19939;-79
2022/04/26 08:58:48;;;;;;;;;;;23.60;56.50;;;;;;5076616;28;19904;-80
2022/04/26 09:01:18;;;;;;;;;;;24.40;58.30;;;;;;5076351;28;20329;-77
2022/04/26 09:03:57;;;;;;;;;;;26.00;54.10;;;;;;5058240;28;20335;-77
2022/04/26 09:06:33;;;;;;;;;;;26.30;52.60;;;;;;5076344;28;20388;-77
2022/04/26 09:09:06;;;;;;;;;;;26.10;52.20;;;;;;5076324;28;19953;-77
2022/04/26 09:11:35;;;;;;;;;;;26.90;51.10;;;;;;5076002;28;19916;-77
2022/04/26 09:14:01;;;;;;;;;;;27.70;51.20;;;;;;5075923;28;20348;-77
2022/04/26 09:16:26;;;;;;;;;;;27.00;50.70;;;;;;5076410;28;20379;-77
2022/04/26 09:18:59;;;;;;;;;;;27.40;48.90;;;;;;5076240;28;19997;-78
2022/04/26 09:21:29;;;;;;;;;;;27.70;49.10;;;;;;5057837;28;19904;-77
2022/04/26 09:24:01;;;;;;;;;;;27.70;47.30;;;;;;5075930;28;19908;-77
2022/04/26 09:26:45;;;;;;;;;;;28.80;47.60;;;;;;5070897;28;19908;-77
2022/04/26 09:29:17;;;;;;;;;;;30.20;45.30;;;;;;5057585;28;19904;-77
2022/04/26 09:31:43;;;;;;;;;;;29.30;44.20;;;;;;5075847;28;19911;-76
2022/04/26 09:34:12;;;;;;;;;;;26.00;47.30;;;;;;5075696;28;19908;-77
2022/04/26 09:36:44;;;;;;;;;;;24.20;49.60;;;;;;5075599;28;19934;-79
2022/04/26 09:39:15;;;;;;;;;;;23.70;51.80;;;;;;5057569;28;19917;-77
2022/04/26 09:41:47;;;;;;;;;;;23.40;51.20;;;;;;5075612;28;20430;-79
2022/04/26 09:44:13;;;;;;;;;;;23.60;53.30;;;;;;5075559;28;20291;-78
2022/04/26 09:46:54;;;;;;;;;;;25.20;51.80;;;;;;5075361;28;20007;-77
2022/04/26 09:49:24;;;;;;;;;;;30.10;47.10;;;;;;5075456;28;19908;-78
2022/04/26 09:52:13;;;;;;;;;;;31.80;42.70;;;;;;5075410;28;19912;-77
2022/04/26 09:54:39;;;;;;;;;;;28.80;44.20;;;;;;5069199;28;19915;-78
2022/04/26 09:57:07;;;;;;;;;;;31.60;42.10;;;;;;5055166;28;19939;-76
2022/04/26 09:59:38;;;;;;;;;;;29.80;41.40;;;;;;5055223;28;20369;-77
2022/04/26 10:02:07;;;;;;;;;;;29.90;42.90;;;;;;5055129;28;19905;-78
2022/04/26 10:04:33;;;;;;;;;;;33.20;39.40;;;;;;5037240;28;20011;-78
2022/04/26 10:07:02;;;;;;;;;;;34.30;37.40;;;;;;5055445;28;20004;-78
2022/04/26 10:09:28;;;;;;;;;;;35.60;37.40;;;;;;5037172;28;19955;-78
2022/04/26 10:11:55;;;;;;;;;;;36.30;35.80;;;;;;5054921;28;20257;-77
2022/04/26 10:14:21;;;;;;;;;;;34.40;36.20;;;;;;5055137;28;19912;-78
2022/04/26 10:16:47;;;;;;;;;;;35.20;35.60;;;;;;5055362;28;19909;-75
2022/04/26 10:19:13;;;;;;;;;;;31.20;36.50;;;;;;5055052;28;19905;-77
2022/04/26 10:21:38;;;;;;;;;;;32.40;38.80;;;;;;5054969;28;20003;-80
2022/04/26 10:24:17;;;;;;;;;;;34.60;36.10;;;;;;5054675;28;19904;-81
2022/04/26 10:26:43;;;;;;;;;;;37.40;34.50;;;;;;5054590;28;19904;-80
2022/04/26 10:29:09;;;;;;;;;;;38.20;34.50;;;;;;5054774;28;19992;-80
2022/04/26 10:31:40;;;;;;;;;;;36.40;34.10;;;;;;5054532;28;19912;-79
2022/04/26 10:34:18;;;;;;;;;;;31.00;36.10;;;;;;5036619;28;19905;-80
2022/04/26 10:36:44;;;;;;;;;;;34.40;36.00;;;;;;5054132;28;20039;-80
2022/04/26 10:39:13;;;;;;;;;;;37.10;34.10;;;;;;5054334;28;19916;-80
2022/04/26 10:41:42;;;;;;;;;;;38.30;33.10;;;;;;5054536;28;19904;-80
2022/04/26 10:44:22;;;;;;;;;;;35.70;33.30;;;;;;5054298;28;20376;-81
2022/04/26 10:47:08;;;;;;;;;;;35.30;34.80;;;;;;5054554;28;19997;-81
2022/04/26 10:49:33;;;;;;;;;;;34.00;33.40;;;;;;5054082;28;19904;-80
2022/04/26 10:52:24;;;;;;;;;;;35.10;34.70;;;;;;5054282;28;19916;-81
2022/04/26 10:54:58;;;;;;;;;;;37.90;33.60;;;;;;5052560;28;20343;-81
2022/04/26 10:57:31;;;;;;;;;;;38.20;32.30;;;;;;5056515;28;19909;-82
2022/04/26 11:00:00;;;;;;;;;;;37.40;31.30;;;;;;5062338;28;19904;-81
2022/04/26 11:02:26;;;;;;;;;;;35.90;33.20;;;;;;5062327;28;19912;-79
2022/04/26 11:04:56;;;;;;;;;;;30.40;36.00;;;;;;5048476;28;19905;-79
2022/04/26 11:07:25;;;;;;;;;;;29.80;37.90;;;;;;5064095;28;19904;-78
2022/04/26 11:09:54;;;;;;;;;;;29.10;37.70;;;;;;5042299;28;20460;-78
2022/04/26 11:12:24;;;;;;;;;;;32.50;37.70;;;;;;5047262;28;19970;-80
2022/04/26 11:14:51;;;;;;;;;;;35.00;34.70;;;;;;5064239;28;20344;-81
2022/04/26 11:17:17;;;;;;;;;;;37.50;34.70;;;;;;5063518;28;19905;-81
2022/04/26 11:19:53;;;;;;;;;;;37.20;33.50;;;;;;5062237;28;19961;-80
2022/04/26 11:22:19;;;;;;;;;;;36.80;33.10;;;;;;5064181;28;19927;-80
2022/04/26 11:30:24;;;;;;;;;;;39.10;32.70;;;;;;5073729;28;19928;-80
2022/04/26 11:32:50;;;;;;;;;;;37.60;31.60;;;;;;5073861;28;19904;-80
2022/04/26 11:35:17;;;;;;;;;;;38.80;32.70;;;;;;5073538;28;20392;-79
2022/04/26 11:37:53;;;;;;;;;;;38.10;32.20;;;;;;5073265;28;19966;-80
2022/04/26 11:40:36;;;;;;;;;;;37.00;32.20;;;;;;5073833;28;20273;-80
2022/04/26 11:43:09;;;;;;;;;;;35.70;34.50;;;;;;5073819;28;19911;-81
2022/04/26 11:45:35;;;;;;;;;;;37.60;32.40;;;;;;5055514;28;19993;-80
2022/04/26 11:48:01;;;;;;;;;;;36.90;31.40;;;;;;5073518;28;19936;-80
2022/04/26 11:50:27;;;;;;;;;;;37.00;33.90;;;;;;5073492;28;19904;-79
2022/04/26 11:52:58;;;;;;;;;;;40.70;32.40;;;;;;5073464;28;19940;-81
2022/04/26 11:55:26;;;;;;;;;;;36.30;31.60;;;;;;5073776;28;19920;-78
2022/04/26 11:57:52;;;;;;;;;;;31.40;34.90;;;;;;5073651;28;19947;-81
2022/04/26 12:00:20;;;;;;;;;;;33.10;37.00;;;;;;5073644;28;20008;-79
2022/04/26 12:02:46;;;;;;;;;;;37.80;33.60;;;;;;5073330;28;19912;-80
2022/04/26 12:05:12;;;;;;;;;;;38.60;32.00;;;;;;5073320;28;19904;-78
2022/04/26 12:07:38;;;;;;;;;;;39.70;30.90;;;;;;5055309;28;19904;-80
2022/04/26 12:10:04;;;;;;;;;;;38.50;32.50;;;;;;5073459;28;19962;-80
2022/04/26 12:12:32;;;;;;;;;;;40.50;31.80;;;;;;5073174;28;19951;-79
2022/04/26 12:14:58;;;;;;;;;;;42.30;30.40;;;;;;5055140;28;20277;-79
2022/04/26 12:17:29;;;;;;;;;;;42.30;30.30;;;;;;5073235;28;19904;-81
2022/04/26 12:19:55;;;;;;;;;;;42.20;30.00;;;;;;5074103;28;19904;-80
2022/04/26 12:22:25;;;;;;;;;;;42.50;29.40;;;;;;5077321;28;19905;-81
2022/04/26 12:24:51;;;;;;;;;;;42.40;28.90;;;;;;5076982;28;19911;-78
2022/04/26 12:27:22;;;;;;;;;;;43.00;29.60;;;;;;5076908;28;19904;-80
2022/04/26 12:29:49;;;;;;;;;;;43.40;29.90;;;;;;5076941;28;19927;-79
2022/04/26 12:32:23;;;;;;;;;;;43.50;29.00;;;;;;5076868;28;20360;-79
2022/04/26 12:34:50;;;;;;;;;;;46.20;29.50;;;;;;5058494;28;20315;-79
2022/04/26 12:37:22;;;;;;;;;;;44.20;29.10;;;;;;5076618;28;20291;-80
2022/04/26 12:39:50;;;;;;;;;;;44.80;29.50;;;;;;5071679;28;19904;-79
2022/04/26 12:42:27;;;;;;;;;;;45.00;29.20;;;;;;5076673;28;20368;-80
2022/04/26 12:44:53;;;;;;;;;;;44.80;29.20;;;;;;5077022;28;19936;-79
2022/04/26 12:52:49;;;;;;;;;;;44.00;28.90;;;;;;5076277;28;19912;-80
2022/04/26 12:55:34;;;;;;;;;;;44.60;28.80;;;;;;5076557;28;19966;-78
2022/04/26 12:58:07;;;;;;;;;;;45.00;29.20;;;;;;5076550;28;19940;-78
2022/04/26 13:00:33;;;;;;;;;;;44.40;28.70;;;;;;5076415;28;19911;-78
2022/04/26 13:03:01;;;;;;;;;;;43.30;28.80;;;;;;5076548;28;19998;-80
2022/04/26 13:05:27;;;;;;;;;;;42.60;29.10;;;;;;5058273;28;20349;-78
2022/04/26 13:07:53;;;;;;;;;;;44.20;29.40;;;;;;5076270;28;19967;-79
2022/04/26 13:10:19;;;;;;;;;;;44.30;29.20;;;;;;5076243;28;19930;-80
2022/04/26 13:12:46;;;;;;;;;;;44.60;29.20;;;;;;5076109;28;19905;-79
2022/04/26 13:15:13;;;;;;;;;;;46.00;29.20;;;;;;5075950;28;19909;-79
2022/04/26 13:17:39;;;;;;;;;;;44.60;28.70;;;;;;5076241;28;19912;-79
2022/04/26 13:20:05;;;;;;;;;;;45.60;29.00;;;;;;5076134;28;19904;-78
2022/04/26 13:22:32;;;;;;;;;;;46.70;28.40;;;;;;5075882;28;19904;-79
2022/04/26 13:24:58;;;;;;;;;;;41.50;28.20;;;;;;5075909;28;20041;-78
2022/04/26 13:27:23;;;;;;;;;;;36.60;30.80;;;;;;5076430;28;19946;-78
2022/04/26 13:29:50;;;;;;;;;;;35.60;33.00;;;;;;5075946;28;20265;-77
2022/04/26 13:32:17;;;;;;;;;;;39.00;31.20;;;;;;5075898;28;20355;-79
2022/04/26 13:34:43;;;;;;;;;;;40.90;30.20;;;;;;5075639;28;20276;-79
2022/04/26 13:37:09;;;;;;;;;;;40.20;29.60;;;;;;5075464;28;19912;-80
2022/04/26 13:39:35;;;;;;;;;;;40.40;28.90;;;;;;5075592;28;19958;-81
2022/04/26 13:42:01;;;;;;;;;;;38.80;29.90;;;;;;5075812;28;19904;-78
2022/04/26 13:44:26;;;;;;;;;;;36.50;31.40;;;;;;5075542;28;19912;-81
2022/04/26 13:46:53;;;;;;;;;;;37.20;31.10;;;;;;5075618;28;19905;-79
2022/04/26 13:49:18;;;;;;;;;;;36.10;31.10;;;;;;5075450;28;19904;-79
2022/04/26 13:51:44;;;;;;;;;;;32.90;33.40;;;;;;5075365;28;19908;-79
2022/04/26 13:54:10;;;;;;;;;;;32.00;35.40;;;;;;5057401;28;19904;-81
2022/04/26 13:56:36;;;;;;;;;;;32.20;33.60;;;;;;5075195;28;19912;-80
2022/04/26 13:59:02;;;;;;;;;;;34.60;33.30;;;;;;5075749;28;19911;-81
2022/04/26 14:01:28;;;;;;;;;;;33.30;32.80;;;;;;5075179;28;19904;-78
2022/04/26 14:03:53;;;;;;;;;;;31.50;35.30;;;;;;5075398;28;19926;-80
2022/04/26 14:06:21;;;;;;;;;;;31.70;34.90;;;;;;5075092;28;20024;-80
2022/04/26 14:08:50;;;;;;;;;;;31.50;35.30;;;;;;5057114;28;19911;-79
2022/04/26 14:11:16;;;;;;;;;;;31.80;35.00;;;;;;5057011;28;19910;-78
2022/04/26 14:21:55;;;;;;;;;;;34.00;32.90;;;;;;5074746;28;19912;-80
2022/04/26 14:24:20;;;;;;;;;;;33.50;32.80;;;;;;5056783;28;19904;-78
2022/04/26 14:26:46;;;;;;;;;;;32.80;34.30;;;;;;5074789;28;20280;-79
2022/04/26 14:29:12;;;;;;;;;;;33.00;34.70;;;;;;5074674;28;19939;-77
2022/04/26 14:31:38;;;;;;;;;;;32.60;34.00;;;;;;5074574;28;19904;-79
2022/04/26 14:34:04;;;;;;;;;;;31.90;35.20;;;;;;5074553;28;19912;-80
2022/04/26 14:36:29;;;;;;;;;;;31.10;36.00;;;;;;5053015;28;19916;-80
2022/04/26 14:38:55;;;;;;;;;;;30.20;36.40;;;;;;5054478;28;19912;-81
2022/04/26 14:41:20;;;;;;;;;;;28.40;38.90;;;;;;5054451;28;19954;-81
2022/04/26 14:43:46;;;;;;;;;;;28.80;38.10;;;;;;5053609;28;19905;-79
2022/04/26 14:46:12;;;;;;;;;;;30.20;37.00;;;;;;5054878;28;19905;-79
2022/04/26 14:48:38;;;;;;;;;;;31.20;36.80;;;;;;5054557;28;19987;-82
2022/04/26 14:51:04;;;;;;;;;;;30.40;35.80;;;;;;5054847;28;19912;-80
2022/04/26 14:53:30;;;;;;;;;;;29.00;37.90;;;;;;5054449;28;19909;-79
2022/04/26 14:55:58;;;;;;;;;;;28.50;38.10;;;;;;5054107;28;19999;-78
2022/04/26 14:58:25;;;;;;;;;;;29.50;38.50;;;;;;5054666;28;20273;-79
2022/04/26 15:00:51;;;;;;;;;;;30.50;37.80;;;;;;5054100;28;19909;-79
2022/04/26 15:03:17;;;;;;;;;;;29.70;36.60;;;;;;5054139;28;19909;-79
2022/04/26 15:05:42;;;;;;;;;;;29.50;37.40;;;;;;5053945;28;19928;-80
2022/04/26 15:10:52;;;;;;;;;;;29.50;39.10;;;;;;5054309;28;19951;-79
2022/04/26 15:18:46;;;;;;;;;;;29.80;37.80;;;;;;5054056;28;19911;-80
2022/04/26 15:21:11;;;;;;;;;;;29.10;38.00;;;;;;5054021;28;19905;-79
2022/04/26 15:23:37;;;;;;;;;;;28.70;39.90;;;;;;5053716;28;20316;-79
2022/04/26 15:26:06;;;;;;;;;;;29.30;38.50;;;;;;5053699;28;19950;-79
2022/04/26 15:28:32;;;;;;;;;;;28.70;38.10;;;;;;5052443;28;20339;-80
2022/04/26 15:30:58;;;;;;;;;;;28.20;39.00;;;;;;5053780;28;19987;-79
2022/04/26 15:33:24;;;;;;;;;;;27.50;39.80;;;;;;5053673;28;19947;-77
2022/04/26 15:35:51;;;;;;;;;;;26.20;41.20;;;;;;5053682;28;20397;-79
2022/04/26 15:38:18;;;;;;;;;;;26.20;41.80;;;;;;5073596;28;19908;-78
2022/04/26 15:40:46;;;;;;;;;;;25.90;41.80;;;;;;5073552;28;19939;-81
2022/04/26 15:43:12;;;;;;;;;;;26.50;41.20;;;;;;5073807;28;20405;-79
2022/04/26 15:45:37;;;;;;;;;;;27.30;40.80;;;;;;5073591;28;19912;-79
2022/04/26 15:48:04;;;;;;;;;;;27.90;39.30;;;;;;5073481;28;19904;-77
2022/04/26 15:50:30;;;;;;;;;;;28.40;39.90;;;;;;5073452;28;20312;-79
2022/04/26 15:52:55;;;;;;;;;;;27.80;41.20;;;;;;5073503;28;19926;-80
2022/04/26 15:55:22;;;;;;;;;;;28.80;40.40;;;;;;5076593;28;19912;-78
2022/04/26 15:57:49;;;;;;;;;;;29.40;40.60;;;;;;5059476;28;20038;-82
2022/04/26 16:00:15;;;;;;;;;;;29.90;38.30;;;;;;5077413;28;19961;-81
2022/04/26 16:02:43;;;;;;;;;;;29.10;38.10;;;;;;5077687;28;20318;-80
2022/04/26 16:05:09;;;;;;;;;;;28.80;38.30;;;;;;5059381;28;19911;-80
2022/04/26 16:07:35;;;;;;;;;;;27.60;39.20;;;;;;5077442;28;19904;-78
2022/04/26 16:20:58;;;;;;;;;;;29.00;38.80;;;;;;5076862;28;19910;-80
2022/04/26 16:23:23;;;;;;;;;;;30.90;36.60;;;;;;5077088;28;19904;-79
2022/04/26 16:25:49;;;;;;;;;;;31.20;36.50;;;;;;5077566;28;20088;-79
2022/04/26 16:28:14;;;;;;;;;;;30.90;37.10;;;;;;5076902;28;19904;-79
2022/04/26 16:30:41;;;;;;;;;;;28.90;38.00;;;;;;5076878;28;19911;-79
2022/04/26 16:33:07;;;;;;;;;;;26.10;41.10;;;;;;5059420;28;19904;-79
2022/04/26 16:35:33;;;;;;;;;;;24.10;43.90;;;;;;5058726;28;19930;-80
2022/04/26 16:37:58;;;;;;;;;;;25.00;44.10;;;;;;5055060;28;19912;-81
2022/04/26 16:40:24;;;;;;;;;;;26.30;41.20;;;;;;5056833;28;19905;-78
2022/04/26 16:42:50;;;;;;;;;;;25.50;42.00;;;;;;5056706;28;19909;-80
2022/04/26 16:45:16;;;;;;;;;;;24.50;43.20;;;;;;5056582;28;19904;-81
2022/04/26 16:47:42;;;;;;;;;;;23.50;44.50;;;;;;5056517;28;19912;-79
2022/04/26 16:50:07;;;;;;;;;;;23.30;45.90;;;;;;5056798;28;19912;-79
2022/04/26 16:52:34;;;;;;;;;;;23.00;45.80;;;;;;5056512;28;19905;-77
2022/04/26 16:55:00;;;;;;;;;;;22.60;47.00;;;;;;5056874;28;19916;-77
2022/04/26 16:57:28;;;;;;;;;;;22.60;47.40;;;;;;5056972;28;19911;-77
2022/04/26 16:59:56;;;;;;;;;;;22.60;47.60;;;;;;5055716;28;19905;-78
2022/04/26 17:02:22;;;;;;;;;;;22.50;47.70;;;;;;5056155;28;19905;-77
2022/04/26 17:04:48;;;;;;;;;;;22.60;48.80;;;;;;5056558;28;19991;-78
2022/04/26 17:07:14;;;;;;;;;;;22.80;48.00;;;;;;5056008;28;20357;-78
2022/04/26 17:09:39;;;;;;;;;;;22.60;49.40;;;;;;5056073;28;19908;-76
2022/04/26 17:12:05;;;;;;;;;;;22.10;49.60;;;;;;5056007;28;19905;-76
2022/04/26 17:14:32;;;;;;;;;;;21.80;49.20;;;;;;5054821;28;19909;-79
2022/04/26 17:16:58;;;;;;;;;;;21.40;50.20;;;;;;5054727;28;19915;-78
2022/04/26 17:19:23;;;;;;;;;;;21.10;50.50;;;;;;5055521;28;19905;-79
2022/04/26 17:21:49;;;;;;;;;;;21.00;50.60;;;;;;5055495;28;19909;-76
2022/04/26 17:26:59;;;;;;;;;;;20.80;51.30;;;;;;5055461;28;20395;-79
2022/04/26 17:29:25;;;;;;;;;;;20.80;52.00;;;;;;5054327;28;19905;-76
2022/04/26 17:31:54;;;;;;;;;;;20.90;52.20;;;;;;5055834;28;20258;-77
2022/04/26 17:34:20;;;;;;;;;;;21.00;52.70;;;;;;5055660;28;20351;-77
2022/04/26 17:36:46;;;;;;;;;;;20.80;52.00;;;;;;5063478;28;19959;-77
2022/04/26 17:39:12;;;;;;;;;;;20.70;52.60;;;;;;5075766;28;20368;-76
2022/04/26 17:41:39;;;;;;;;;;;20.80;53.00;;;;;;5075899;28;19908;-78
2022/04/26 17:44:05;;;;;;;;;;;20.70;53.30;;;;;;5075534;28;19911;-77
2022/04/26 17:46:31;;;;;;;;;;;20.50;53.70;;;;;;5057449;28;20045;-79
2022/04/26 17:48:56;;;;;;;;;;;20.60;53.50;;;;;;5075461;28;19946;-77
2022/04/26 17:51:22;;;;;;;;;;;20.60;53.60;;;;;;5075374;28;19905;-78
2022/04/26 17:56:33;;;;;;;;;;;20.70;54.00;;;;;;5075076;28;19920;-77
2022/04/26 17:58:58;;;;;;;;;;;20.60;54.00;;;;;;5075250;28;19926;-78
2022/04/26 18:01:24;;;;;;;;;;;20.60;54.30;;;;;;5075304;28;20428;-79
2022/04/26 18:03:50;;;;;;;;;;;20.50;54.30;;;;;;5075366;28;19919;-78
2022/04/26 18:06:17;;;;;;;;;;;20.10;54.40;;;;;;5075130;28;19909;-79
2022/04/26 18:08:43;;;;;;;;;;;19.90;55.50;;;;;;5075084;28;20291;-78
2022/04/26 18:11:09;;;;;;;;;;;19.80;55.90;;;;;;5057299;28;19905;-79
2022/04/26 18:13:35;;;;;;;;;;;19.60;56.20;;;;;;5056933;28;19904;-76
2022/04/26 18:16:02;;;;;;;;;;;19.40;56.80;;;;;;5074804;28;19930;-78
2022/04/26 18:18:27;;;;;;;;;;;19.30;57.80;;;;;;5073745;28;20387;-78
2022/04/26 18:20:53;;;;;;;;;;;19.40;58.20;;;;;;5074780;28;19940;-78
2022/04/26 18:23:19;;;;;;;;;;;19.40;58.70;;;;;;5074858;28;20002;-77
2022/04/26 18:28:31;;;;;;;;;;;19.20;59.50;;;;;;5074651;28;19995;-78
2022/04/26 18:31:00;;;;;;;;;;;19.20;60.10;;;;;;5074593;28;19911;-77
2022/04/26 18:33:26;;;;;;;;;;;19.10;60.40;;;;;;5074597;28;19950;-78
2022/04/26 18:35:51;;;;;;;;;;;19.20;61.30;;;;;;5074269;28;20333;-79
2022/04/26 18:38:17;;;;;;;;;;;19.00;61.50;;;;;;5074397;28;19956;-77
2022/04/26 18:40:43;;;;;;;;;;;18.80;62.20;;;;;;5074690;28;19904;-78
2022/04/26 18:43:09;;;;;;;;;;;18.70;62.60;;;;;;5074374;28;19954;-78
2022/04/26 18:45:34;;;;;;;;;;;18.50;64.00;;;;;;5074353;28;19905;-78
2022/04/26 18:48:00;;;;;;;;;;;18.30;64.60;;;;;;5056331;28;19913;-79
2022/04/26 18:50:26;;;;;;;;;;;18.20;64.80;;;;;;5074211;28;19904;-77
2022/04/26 18:52:52;;;;;;;;;;;18.00;65.10;;;;;;5056274;28;20276;-77